createdAt,value
2022-08-04T00:00:18.512Z,100973.22
2022-08-04T00:03:02.589Z,100972.00
2022-08-04T00:05:53.672Z,100969.75
2022-08-04T00:08:31.105Z,100960.34
2022-08-04T00:11:00.898Z,100915.91
2022-08-04T00:13:31.232Z,100970.66
2022-08-04T00:16:01.951Z,100956.75
2022-08-04T00:18:45.346Z,100863.13
2022-08-04T00:21:16.353Z,100914.03
2022-08-04T00:24:11.716Z,100905.34
2022-08-04T00:26:34.014Z,100909.72
2022-08-04T00:29:00.970Z,100924.63
2022-08-04T00:31:33.294Z,100950.31
2022-08-04T00:34:15.584Z,100944.41
2022-08-04T00:36:45.955Z,100933.78
2022-08-04T00:39:14.542Z,100937.97
2022-08-04T00:42:11.581Z,100872.22
2022-08-04T00:45:03.521Z,100943.06
2022-08-04T00:48:17.539Z,100931.84
2022-08-04T00:51:18.638Z,100919.63
2022-08-04T00:54:12.599Z,100917.22
2022-08-04T00:56:47.438Z,100878.38
2022-08-04T00:59:13.770Z,100916.72
2022-08-04T01:02:15.774Z,100895.97
2022-08-04T01:05:03.028Z,100911.09
2022-08-04T01:07:59.871Z,100912.38
2022-08-04T01:10:37.021Z,100881.91
2022-08-04T01:13:25.917Z,100919.44
2022-08-04T01:15:59.919Z,100909.03
2022-08-04T01:18:36.111Z,100842.44
2022-08-04T01:21:02.445Z,100916.34
2022-08-04T01:23:37.937Z,100902.47
2022-08-04T01:26:43.571Z,100902.31
2022-08-04T01:29:15.050Z,100903.59
2022-08-04T01:31:48.683Z,100904.03
2022-08-04T01:34:16.018Z,100898.13
2022-08-04T01:36:50.033Z,100896.75
2022-08-04T01:39:53.905Z,100896.06
2022-08-04T01:42:31.218Z,100839.25
2022-08-04T01:45:00.246Z,100896.94
2022-08-04T01:47:29.553Z,100896.50
2022-08-04T01:50:05.900Z,100889.75
2022-08-04T01:52:35.319Z,100836.56
2022-08-04T01:55:10.026Z,100890.19
2022-08-04T01:57:44.718Z,100870.97
2022-08-04T02:00:14.088Z,100891.59
2022-08-04T02:02:40.891Z,100834.34
2022-08-04T02:05:11.825Z,100819.75
2022-08-04T02:08:04.720Z,100809.34
2022-08-04T02:10:47.132Z,100875.31
2022-08-04T02:13:27.963Z,100822.66
2022-08-04T02:16:03.103Z,100869.13
2022-08-04T02:18:44.709Z,100869.38
2022-08-04T02:21:14.679Z,100863.19
2022-08-04T02:23:41.757Z,100781.47
2022-08-04T02:26:22.410Z,100827.81
2022-08-04T02:28:58.562Z,100863.19
2022-08-04T02:31:33.541Z,100861.47
2022-08-04T02:34:00.629Z,100874.94
2022-08-04T02:36:34.888Z,100862.47
2022-08-04T02:39:03.770Z,100856.84
2022-08-04T02:41:31.599Z,100784.28
2022-08-04T02:44:00.856Z,100761.81
2022-08-04T02:46:28.473Z,100745.00
2022-08-04T02:48:56.149Z,100843.00
2022-08-04T02:51:25.226Z,100844.69
2022-08-04T02:53:54.486Z,100826.97
2022-08-04T02:56:22.172Z,100720.88
2022-08-04T02:58:53.248Z,100783.88
2022-08-04T03:01:22.756Z,100764.09
2022-08-04T03:03:59.763Z,100826.59
2022-08-04T03:06:38.446Z,100836.53
2022-08-04T03:09:23.425Z,100827.84
2022-08-04T03:12:01.895Z,100824.88
2022-08-04T03:14:47.028Z,100835.25
2022-08-04T03:17:31.086Z,100724.19
2022-08-04T03:20:16.101Z,100829.16
2022-08-04T03:23:14.362Z,100826.03
2022-08-04T03:26:17.601Z,100781.41
2022-08-04T03:29:35.866Z,100573.63
2022-08-04T03:32:17.349Z,100782.22
2022-08-04T03:34:51.798Z,100795.75
2022-08-04T03:37:52.247Z,100793.81
2022-08-04T03:40:33.757Z,100789.06
2022-08-04T03:43:58.947Z,100778.97
2022-08-04T03:46:26.888Z,100781.22
2022-08-04T03:49:18.018Z,100779.16
2022-08-04T03:52:20.779Z,100771.19
2022-08-04T03:55:15.082Z,100772.72
2022-08-04T03:57:44.226Z,100774.41
2022-08-04T04:00:31.820Z,100736.50
2022-08-04T04:03:38.133Z,100768.66
2022-08-04T04:06:53.791Z,100772.03
2022-08-04T04:09:23.523Z,100771.47
2022-08-04T04:12:51.052Z,100769.34
2022-08-04T04:15:34.353Z,100770.44
2022-08-04T04:18:06.875Z,100765.84
2022-08-04T04:20:55.414Z,100684.38
2022-08-04T04:23:54.286Z,100740.03
2022-08-04T04:26:42.278Z,100747.66
2022-08-04T04:29:30.163Z,100741.00
2022-08-04T04:32:12.455Z,100740.47
2022-08-04T04:35:00.105Z,100678.44
2022-08-04T04:37:50.285Z,100745.75
2022-08-04T04:40:34.053Z,100737.31
2022-08-04T04:43:13.543Z,100734.06
2022-08-04T04:46:08.844Z,100662.84
2022-08-04T04:48:41.494Z,100722.22
2022-08-04T04:51:18.982Z,100722.00
2022-08-04T04:54:04.681Z,100707.72
2022-08-04T04:56:49.374Z,100721.94
2022-08-04T04:59:21.821Z,100734.72
2022-08-04T05:02:07.389Z,100751.50
2022-08-04T05:04:55.994Z,100587.44
2022-08-04T05:07:34.565Z,100737.66
2022-08-04T05:10:22.491Z,100736.94
2022-08-04T05:14:33.290Z,100726.81
2022-08-04T05:15:47.905Z,100725.03
2022-08-04T05:18:21.338Z,100734.13
2022-08-04T05:20:57.112Z,100735.97
2022-08-04T05:23:27.960Z,100733.91
2022-08-04T05:26:12.992Z,100545.38
2022-08-04T05:28:59.895Z,100733.56
2022-08-04T05:31:31.032Z,100731.97
2022-08-04T05:34:12.651Z,100744.81
2022-08-04T05:36:52.286Z,100713.56
2022-08-04T05:39:34.179Z,100752.22
2022-08-04T05:42:04.507Z,100739.72
2022-08-04T05:44:33.870Z,100764.25
2022-08-04T05:47:02.475Z,100760.50
2022-08-04T05:49:29.417Z,100742.84
2022-08-04T05:52:00.783Z,100752.66
2022-08-04T05:54:29.063Z,100725.69
2022-08-04T05:56:57.511Z,100714.41
2022-08-04T05:59:28.068Z,100735.22
2022-08-04T06:01:57.647Z,100723.44
2022-08-04T06:04:38.613Z,100752.06
2022-08-04T06:07:05.677Z,100702.72
2022-08-04T06:09:32.365Z,100681.25
2022-08-04T06:12:12.167Z,100717.34
2022-08-04T06:14:42.134Z,100746.41
2022-08-04T06:19:56.724Z,100768.31
2022-08-04T06:20:20.275Z,100777.78
2022-08-04T06:22:50.596Z,100774.69
2022-08-04T06:25:22.246Z,100782.72
2022-08-04T06:27:50.488Z,100788.53
2022-08-04T06:30:19.393Z,100763.41
2022-08-04T06:32:48.466Z,100723.00
2022-08-04T06:35:20.729Z,100742.00
2022-08-04T06:37:48.357Z,100732.25
2022-08-04T06:40:31.682Z,100763.47
2022-08-04T06:43:01.905Z,100784.38
2022-08-04T06:45:28.798Z,100717.06
2022-08-04T06:47:59.913Z,100796.75
2022-08-04T06:51:26.910Z,100788.19
2022-08-04T06:53:13.868Z,100785.09
2022-08-04T06:55:45.908Z,100697.97
2022-08-04T06:58:13.368Z,100775.84
2022-08-04T07:00:42.037Z,100769.31
2022-08-04T07:03:08.590Z,100764.31
2022-08-04T07:05:35.944Z,100775.47
2022-08-04T07:08:03.736Z,100704.94
2022-08-04T07:10:30.945Z,100777.22
2022-08-04T07:12:59.268Z,100781.13
2022-08-04T07:15:26.749Z,100781.41
2022-08-04T07:17:55.933Z,100777.56
2022-08-04T07:20:35.976Z,100720.56
2022-08-04T07:23:05.440Z,100771.41
2022-08-04T07:25:59.049Z,100767.81
2022-08-04T07:28:22.319Z,100729.66
2022-08-04T07:30:49.953Z,100771.28
2022-08-04T07:33:19.540Z,100763.34
2022-08-04T07:36:04.569Z,100744.88
2022-08-04T07:38:37.564Z,100709.41
2022-08-04T07:43:59.686Z,100710.53
2022-08-04T07:46:26.412Z,100763.50
2022-08-04T07:48:59.168Z,100746.38
2022-08-04T07:51:25.634Z,100762.00
2022-08-04T07:53:56.214Z,100733.00
2022-08-04T07:56:23.182Z,100640.31
2022-08-04T07:58:49.934Z,100651.78
2022-08-04T08:01:18.796Z,100716.31
2022-08-04T08:03:45.879Z,100767.84
2022-08-04T08:06:17.536Z,100765.38
2022-08-04T08:09:12.455Z,100758.97
2022-08-04T08:12:36.164Z,100763.94
2022-08-04T08:14:30.289Z,100762.56
2022-08-04T08:16:58.084Z,100665.13
2022-08-04T08:19:24.521Z,100733.44
2022-08-04T08:21:59.174Z,100754.69
2022-08-04T08:24:29.392Z,100742.88
2022-08-04T08:26:56.858Z,100757.88
2022-08-04T08:29:24.482Z,100694.72
2022-08-04T08:31:56.395Z,100661.00
2022-08-04T08:34:28.760Z,100707.88
2022-08-04T08:37:19.652Z,100741.72
2022-08-04T08:39:52.899Z,100727.25
2022-08-04T08:42:55.857Z,100735.34
2022-08-04T08:45:40.933Z,100738.56
2022-08-04T08:48:20.365Z,100735.09
2022-08-04T08:51:16.337Z,100587.03
2022-08-04T08:53:48.924Z,100741.09
2022-08-04T08:56:18.165Z,100735.28
2022-08-04T08:59:17.756Z,100738.03
2022-08-04T09:02:11.699Z,100747.00
2022-08-04T09:05:21.333Z,100755.66
2022-08-04T09:08:08.894Z,100692.59
2022-08-04T09:10:57.756Z,100747.19
2022-08-04T09:13:45.769Z,100753.72
2022-08-04T09:16:30.676Z,100751.41
2022-08-04T09:19:09.997Z,100707.66
2022-08-04T09:22:03.739Z,100732.16
2022-08-04T09:25:00.147Z,100740.03
2022-08-04T09:27:47.209Z,100774.72
2022-08-04T09:30:18.643Z,100779.00
2022-08-04T09:33:03.825Z,100747.03
2022-08-04T09:35:54.716Z,100786.88
2022-08-04T09:38:30.721Z,100786.84
2022-08-04T09:41:28.223Z,100789.34
2022-08-04T09:44:53.144Z,100726.53
2022-08-04T09:47:45.633Z,100787.56
2022-08-04T09:50:26.426Z,100795.03
2022-08-04T09:53:05.141Z,100796.63
2022-08-04T09:55:53.486Z,100806.16
2022-08-04T09:58:39.378Z,100803.78
2022-08-04T10:01:11.731Z,100802.22
2022-08-04T10:03:41.229Z,100801.44
2022-08-04T10:06:42.083Z,100720.69
2022-08-04T10:09:36.310Z,100824.38
2022-08-04T10:12:54.831Z,100824.16
2022-08-04T10:15:31.765Z,100805.13
2022-08-04T10:18:10.849Z,100773.75
2022-08-04T10:20:54.130Z,100818.94
2022-08-04T10:23:56.113Z,100792.53
2022-08-04T10:26:29.468Z,100840.06
2022-08-04T10:29:09.734Z,100836.41
2022-08-04T10:31:54.441Z,100808.31
2022-08-04T10:34:25.114Z,100792.44
2022-08-04T10:37:06.233Z,100808.88
2022-08-04T10:39:44.540Z,100804.50
2022-08-04T10:42:30.714Z,100834.75
2022-08-04T10:45:06.250Z,100857.25
2022-08-04T10:47:38.063Z,100832.25
2022-08-04T10:50:06.512Z,100872.31
2022-08-04T10:52:44.779Z,100814.91
2022-08-04T10:56:05.623Z,100806.06
2022-08-04T10:58:47.835Z,100878.94
2022-08-04T11:02:01.650Z,100890.00
2022-08-04T11:04:26.649Z,100881.72
2022-08-04T11:06:55.425Z,100700.50
2022-08-04T11:09:22.686Z,100890.56
2022-08-04T11:12:03.669Z,100784.38
2022-08-04T11:14:52.031Z,100858.56
2022-08-04T11:17:29.065Z,100870.97
2022-08-04T11:20:24.903Z,100903.38
2022-08-04T11:22:58.413Z,100896.50
2022-08-04T11:25:38.566Z,100865.41
2022-08-04T11:28:11.031Z,100905.66
2022-08-04T11:30:46.609Z,100867.72
2022-08-04T11:33:32.401Z,100899.00
2022-08-04T11:36:08.364Z,100898.31
2022-08-04T11:38:51.984Z,100810.03
2022-08-04T11:41:23.463Z,100886.66
2022-08-04T11:44:03.876Z,100884.50
2022-08-04T11:46:40.782Z,100949.72
2022-08-04T11:49:11.846Z,100942.34
2022-08-04T11:51:39.591Z,100950.44
2022-08-04T11:54:09.076Z,100925.94
2022-08-04T11:56:38.137Z,100939.72
2022-08-04T11:59:08.099Z,100949.94
2022-08-04T12:02:06.942Z,100950.56
2022-08-04T12:04:58.448Z,100907.44
2022-08-04T12:07:49.551Z,100950.09
2022-08-04T12:10:47.268Z,100935.84
2022-08-04T12:13:28.011Z,100853.66
2022-08-04T12:16:16.123Z,100904.72
2022-08-04T12:18:53.359Z,100927.63
2022-08-04T12:21:50.406Z,100915.03
2022-08-04T12:24:44.815Z,100928.84
2022-08-04T12:27:17.997Z,100891.16
2022-08-04T12:30:54.033Z,100898.28
2022-08-04T12:32:39.252Z,100868.78
2022-08-04T12:35:19.305Z,100936.28
2022-08-04T12:37:59.045Z,100928.25
2022-08-04T12:40:31.493Z,100886.28
2022-08-04T12:43:14.369Z,100929.41
2022-08-04T12:45:48.657Z,100910.00
2022-08-04T12:48:21.101Z,100924.47
2022-08-04T12:50:56.682Z,100885.22
2022-08-04T12:53:32.545Z,100922.44
2022-08-04T12:56:02.153Z,100883.91
2022-08-04T12:58:43.266Z,100917.81
2022-08-04T13:02:09.936Z,100868.22
2022-08-04T13:04:28.943Z,100824.38
2022-08-04T13:07:09.727Z,100915.78
2022-08-04T13:09:37.668Z,100874.97
2022-08-04T13:12:13.042Z,100876.06
2022-08-04T13:14:44.262Z,100817.56
2022-08-04T13:17:13.184Z,100912.19
2022-08-04T13:19:46.167Z,100909.38
2022-08-04T13:22:23.182Z,100867.88
2022-08-04T13:24:56.859Z,100920.25
2022-08-04T13:27:46.629Z,100863.94
2022-08-04T13:30:23.095Z,100762.50
2022-08-04T13:32:55.460Z,100884.22
2022-08-04T13:35:25.896Z,100924.53
2022-08-04T13:38:12.967Z,100922.28
2022-08-04T13:40:41.951Z,100895.84
2022-08-04T13:44:15.478Z,100918.72
2022-08-04T13:46:15.959Z,100903.63
2022-08-04T13:49:27.951Z,100899.53
2022-08-04T13:51:57.397Z,100945.44
2022-08-04T13:54:27.001Z,100914.09
2022-08-04T13:57:06.046Z,100949.16
2022-08-04T13:59:37.999Z,100846.34
2022-08-04T14:02:12.299Z,100931.09
2022-08-04T14:04:43.098Z,100925.09
2022-08-04T14:07:20.790Z,100926.06
2022-08-04T14:10:03.468Z,100902.72
2022-08-04T14:12:46.389Z,100926.34
2022-08-04T14:18:37.533Z,100939.41
2022-08-04T14:21:11.273Z,100907.84
2022-08-04T14:23:47.557Z,100904.13
2022-08-04T14:26:17.542Z,100934.75
2022-08-04T14:29:25.587Z,100918.06
2022-08-04T14:31:31.333Z,100775.72
2022-08-04T14:34:00.051Z,100897.22
2022-08-04T14:37:13.191Z,100942.22
2022-08-04T14:39:42.275Z,100900.75
2022-08-04T14:42:54.878Z,100940.31
2022-08-04T14:45:37.634Z,100944.78
2022-08-04T14:48:12.468Z,100865.09
2022-08-04T14:50:41.301Z,100948.66
2022-08-04T14:53:14.331Z,100957.09
2022-08-04T14:55:56.491Z,100955.19
2022-08-04T14:58:33.799Z,100962.03
2022-08-04T15:01:11.035Z,100941.00
2022-08-04T15:03:50.739Z,100894.00
2022-08-04T15:06:26.003Z,100888.16
2022-08-04T15:08:58.204Z,100893.66
2022-08-04T15:11:25.582Z,100952.28
2022-08-04T15:13:54.716Z,100861.53
2022-08-04T15:16:22.848Z,100950.66
2022-08-04T15:18:50.279Z,100932.09
2022-08-04T15:21:18.154Z,100865.91
2022-08-04T15:23:44.749Z,100935.47
2022-08-04T15:26:19.564Z,100828.22
2022-08-04T15:28:51.453Z,100929.38
2022-08-04T15:32:05.837Z,100935.72
2022-08-04T15:34:13.598Z,100779.66
2022-08-04T15:36:57.169Z,100936.34
2022-08-04T15:39:45.808Z,100933.03
2022-08-04T15:42:32.654Z,100860.06
2022-08-04T15:45:19.334Z,100872.06
2022-08-04T15:48:06.120Z,100938.44
2022-08-04T15:50:32.624Z,100872.97
2022-08-04T15:53:10.049Z,100950.97
2022-08-04T15:55:39.714Z,100950.47
2022-08-04T15:58:09.361Z,100871.19
2022-08-04T16:00:48.511Z,100955.56
2022-08-04T16:03:58.276Z,100956.13
2022-08-04T16:06:22.731Z,100965.78
2022-08-04T16:08:52.585Z,100945.06
2022-08-04T16:11:34.914Z,100924.69
2022-08-04T16:14:04.628Z,100912.72
2022-08-04T16:16:32.889Z,100893.47
2022-08-04T16:19:35.359Z,100812.38
2022-08-04T16:22:03.069Z,100882.19
2022-08-04T16:24:29.659Z,100886.81
2022-08-04T16:27:01.246Z,100864.72
2022-08-04T16:29:32.027Z,100831.75
2022-08-04T16:32:07.459Z,100882.53
2022-08-04T16:34:54.725Z,100835.88
2022-08-04T16:37:37.804Z,100783.75
2022-08-04T16:40:39.522Z,100895.94
2022-08-04T16:43:13.050Z,100890.97
2022-08-04T16:45:54.675Z,100834.09
2022-08-04T16:48:34.011Z,100896.38
2022-08-04T16:51:10.243Z,100892.63
2022-08-04T16:54:04.039Z,100837.78
2022-08-04T16:56:33.049Z,100731.25
2022-08-04T16:59:09.295Z,100847.22
2022-08-04T17:01:36.944Z,100843.41
2022-08-04T17:04:05.309Z,100819.84
2022-08-04T17:06:37.906Z,100752.81
2022-08-04T17:09:05.063Z,100880.41
2022-08-04T17:11:32.681Z,100809.00
2022-08-04T17:14:03.975Z,100845.09
2022-08-04T17:16:34.202Z,100812.56
2022-08-04T17:19:01.870Z,100808.75
2022-08-04T17:21:31.679Z,100868.56
2022-08-04T17:24:14.182Z,100878.09
2022-08-04T17:26:53.741Z,100889.69
2022-08-04T17:29:21.450Z,100879.03
2022-08-04T17:31:48.156Z,100889.47
2022-08-04T17:34:19.258Z,100788.75
2022-08-04T17:36:47.896Z,100822.78
2022-08-04T17:39:23.461Z,100808.97
2022-08-04T17:41:56.622Z,100887.88
2022-08-04T17:44:37.055Z,100891.59
2022-08-04T17:47:19.483Z,100836.13
2022-08-04T17:49:52.883Z,100900.19
2022-08-04T17:52:37.472Z,100889.53
2022-08-04T17:55:16.334Z,100890.28
2022-08-04T17:57:52.418Z,100881.19
2022-08-04T18:00:19.454Z,100892.81
2022-08-04T18:02:53.465Z,100886.09
2022-08-04T18:05:54.112Z,100883.34
2022-08-04T18:08:37.880Z,100905.56
2022-08-04T18:11:05.404Z,100902.59
2022-08-04T18:13:42.744Z,100908.81
2022-08-04T18:16:22.919Z,100901.72
2022-08-04T18:19:13.067Z,100880.44
2022-08-04T18:24:28.575Z,100897.47
2022-08-04T18:27:01.891Z,100860.66
2022-08-04T18:29:31.526Z,100908.34
2022-08-04T18:31:58.717Z,100886.63
2022-08-04T18:34:26.916Z,100913.81
2022-08-04T18:36:59.228Z,100838.81
2022-08-04T18:40:17.409Z,100779.91
2022-08-04T18:42:14.669Z,100842.22
2022-08-04T18:44:51.911Z,100898.22
2022-08-04T18:47:29.786Z,100856.84
2022-08-04T18:51:01.239Z,100825.22
2022-08-04T18:52:46.389Z,100826.06
2022-08-04T18:55:55.548Z,100894.81
2022-08-04T18:58:07.261Z,100838.00
2022-08-04T19:00:45.494Z,100902.53
2022-08-04T19:03:12.338Z,100846.78
2022-08-04T19:05:43.640Z,100880.13
2022-08-04T19:08:32.926Z,100912.88
2022-08-04T19:11:01.937Z,100881.72
2022-08-04T19:13:58.303Z,100915.44
2022-08-04T19:16:26.874Z,100886.13
2022-08-04T19:18:53.690Z,100902.06
2022-08-04T19:24:29.532Z,100926.41
2022-08-04T19:26:55.503Z,100939.16
2022-08-04T19:29:22.047Z,100942.16
2022-08-04T19:31:51.517Z,100869.06
2022-08-04T19:34:33.053Z,100882.94
2022-08-04T19:37:01.210Z,100949.06
2022-08-04T19:39:30.586Z,100943.53
2022-08-04T19:42:04.346Z,100940.69
2022-08-04T19:44:32.151Z,100894.47
2022-08-04T19:47:00.425Z,100958.81
2022-08-04T19:50:04.645Z,100923.31
2022-08-04T19:52:15.055Z,100949.72
2022-08-04T19:55:00.823Z,100931.59
2022-08-04T19:57:46.047Z,100857.53
2022-08-04T20:00:14.214Z,100898.81
2022-08-04T20:02:41.867Z,100967.31
2022-08-04T20:05:08.731Z,100952.31
2022-08-04T20:07:35.460Z,100893.53
2022-08-04T20:10:04.972Z,100754.75
2022-08-04T20:12:31.664Z,100890.19
2022-08-04T20:15:01.118Z,100928.06
2022-08-04T20:18:07.167Z,100938.47
2022-08-04T20:20:14.933Z,100905.47
2022-08-04T20:22:52.031Z,100932.78
2022-08-04T20:25:36.598Z,100979.38
2022-08-04T20:28:05.313Z,100948.47
2022-08-04T20:30:33.426Z,100988.63
2022-08-04T20:33:01.072Z,100889.13
2022-08-04T20:35:29.462Z,100914.78
2022-08-04T20:38:00.790Z,100809.59
2022-08-04T20:40:28.492Z,100958.66
2022-08-04T20:42:57.279Z,100917.91
2022-08-04T20:45:55.895Z,101001.94
2022-08-04T20:48:10.981Z,101000.81
2022-08-04T20:50:37.451Z,100916.59
2022-08-04T20:53:05.891Z,100976.13
2022-08-04T20:55:54.723Z,100947.31
2022-08-04T20:58:21.961Z,101000.75
2022-08-04T21:00:55.071Z,100970.75
2022-08-04T21:03:49.317Z,101033.81
2022-08-04T21:06:11.176Z,100962.47
2022-08-04T21:08:37.705Z,100989.28
2022-08-04T21:11:06.744Z,101035.88
2022-08-04T21:13:52.433Z,101049.44
2022-08-04T21:16:55.159Z,100917.97
2022-08-04T21:19:06.690Z,101057.66
2022-08-04T21:21:40.573Z,101066.88
2022-08-04T21:24:07.773Z,101063.19
2022-08-04T21:26:35.430Z,101056.72
2022-08-04T21:29:04.647Z,101046.34
2022-08-04T21:31:32.447Z,101067.69
2022-08-04T21:34:03.386Z,101025.41
2022-08-04T21:36:31.414Z,101040.81
2022-08-04T21:39:00.170Z,100882.44
2022-08-04T21:41:27.123Z,101055.28
2022-08-04T21:43:54.116Z,101044.03
2022-08-04T21:46:20.885Z,101057.38
2022-08-04T21:48:53.730Z,101068.84
2022-08-04T21:51:56.832Z,101065.19
2022-08-04T21:54:17.116Z,101072.13
2022-08-04T21:56:55.899Z,101071.91
2022-08-04T22:00:30.865Z,101084.47
2022-08-04T22:03:02.474Z,101083.50
2022-08-04T22:05:38.923Z,101120.09
2022-08-04T22:11:44.226Z,101136.53
2022-08-04T22:18:09.153Z,101069.31
2022-08-04T22:20:36.986Z,100982.19
2022-08-04T22:23:15.498Z,101153.34
2022-08-04T22:26:06.313Z,101110.34
2022-08-04T22:31:23.526Z,101101.72
2022-08-04T22:40:35.569Z,101116.22
2022-08-04T22:54:19.938Z,100867.16
2022-08-04T22:57:10.117Z,100854.75
2022-08-04T22:59:42.615Z,100962.09
2022-08-04T23:02:16.063Z,101019.16
2022-08-04T23:04:43.064Z,101006.44
2022-08-04T23:07:11.343Z,100860.25
2022-08-04T23:09:50.376Z,100701.38
2022-08-04T23:12:26.995Z,100979.13
2022-08-04T23:14:58.326Z,100961.09
2022-08-04T23:17:27.661Z,100946.94
2022-08-04T23:19:59.894Z,100948.88
2022-08-04T23:22:42.335Z,100890.63
2022-08-04T23:25:33.242Z,100935.50
2022-08-04T23:28:11.735Z,100932.13
2022-08-04T23:30:39.061Z,100824.00
2022-08-04T23:33:15.235Z,100909.41
2022-08-04T23:35:42.336Z,100901.13
2022-08-04T23:38:30.070Z,100854.56
2022-08-04T23:40:58.808Z,100905.41
2022-08-04T23:43:25.646Z,100901.88
2022-08-04T23:46:09.795Z,100898.41
2022-08-04T23:48:38.872Z,100895.63
2022-08-04T23:51:14.799Z,100899.56
2022-08-04T23:56:27.675Z,100801.44
2022-08-04T23:58:54.621Z,100895.03
